Accueil
METAR-TAF:

METAR-TAF

Aéroports :

Dar es Salam, Tanzanie

Aéroport international Julius Nyerere

latitude: 06-52S, longitude: 039-12E, altitude: 55 m

Observation

Le bulletin a été fait il y a 48 minutes, à 04:00 UTC
Vent calme
Température 24°C
Humidité 94%
Pression 1016 hPa
Visibilité 10 km ou plus
Quelques nuages à une hauteur de 1500 ft

METAR: HTDA 220400Z 00000KT 9999 FEW015 24/23 Q1016 NOSIG

Heure: 07:48 (04:48 UTC)

Prévision

Le bulletin a été fait il y a 5 heures et 48 minutes, à 23:00 UTC
Prévision valable du 22 à 00 UTC au 23 à 06 UTC
Vent kt de nord
Visibilité 10 km ou plus
Quelques nuages à une hauteur de 1400 ft
Evoluant progressivement
du 22 à 09 UTC au 22 à 12 UTC
Vent 10 kt de sud/sud-est
Nuages fragmentés à une hauteur de 2900 ft

TAF: HTDA 212300Z 2200/2306 00000KT 9999 FEW014 BECMG 2209/2212 16010KT BKN029

Observations et prévisions météorologiques de plus de 4000 aéroports (messages METAR et TAF).

Les stations disponibles sont représentées par des disques jaunes et rouges sur la carte.

Passer la souris dessus pour voir le nom de la station.

Cliquer dessus pour voir les observations et prévisions météorologiques.

Pour changer de carte: cliquez sur les boutons verts avec une croix noire pour zoomer, sur le bouton vert avec un tiret pour effectuer un zoom arrière, ou sur les flèches vertes pour les cartes adjacentes.


METAR-TAF: